Time;durP1;ratioP1;P1;durP2;ratioP2;P2;SDS_P1;SDS_P2;PMS_P1;PMS_P2;Temp;Humidity;BMP_temperature;BMP_pressure;BME280_temperature;BME280_humidity;BME280_pressure;Samples;Min_cycle;Max_cycle;Signal;HPM_P1;HPM_P2
2023/02/14 00:00:20;;;;;;;64.32;25.58;;;1.50;99.90;;;;;;4977609;28;20539;-89
2023/02/14 00:02:47;;;;;;;66.47;27.23;;;1.50;99.90;;;;;;4977005;28;20033;-88
2023/02/14 00:05:13;;;;;;;69.90;25.50;;;1.50;99.90;;;;;;4977676;28;20170;-88
2023/02/14 00:07:38;;;;;;;73.25;29.13;;;1.50;99.90;;;;;;4977448;28;20118;-87
2023/02/14 00:10:05;;;;;;;73.15;27.40;;;1.40;99.90;;;;;;4977440;28;20133;-88
2023/02/14 00:12:30;;;;;;;69.78;26.30;;;1.30;99.90;;;;;;4977314;28;20118;-88
2023/02/14 00:17:40;;;;;;;64.47;25.55;;;1.30;99.90;;;;;;4995569;28;20555;-88
2023/02/14 00:20:06;;;;;;;67.25;25.85;;;1.30;99.90;;;;;;4978038;28;20026;-88
2023/02/14 00:22:32;;;;;;;74.25;26.10;;;1.30;99.90;;;;;;4977772;28;20133;-88
2023/02/14 00:24:57;;;;;;;87.57;28.77;;;1.20;99.90;;;;;;4978702;28;20061;-88
2023/02/14 00:27:23;;;;;;;71.80;28.40;;;1.20;99.90;;;;;;4980841;28;20498;-89
2023/02/14 00:29:49;;;;;;;64.57;23.92;;;1.20;99.90;;;;;;4980380;28;20050;-88
2023/02/14 00:32:14;;;;;;;72.88;25.65;;;1.30;99.90;;;;;;4977512;28;20527;-88
2023/02/14 00:34:40;;;;;;;70.10;26.85;;;1.30;99.90;;;;;;4977437;28;20034;-89
2023/02/14 00:37:06;;;;;;;62.33;23.52;;;1.30;99.90;;;;;;4977397;28;20030;-88
2023/02/14 00:39:31;;;;;;;79.03;28.98;;;1.30;99.90;;;;;;4977277;28;20094;-89
2023/02/14 00:41:57;;;;;;;92.95;30.38;;;1.20;99.90;;;;;;4978273;28;20065;-88
2023/02/14 00:44:23;;;;;;;124.32;37.13;;;1.20;99.90;;;;;;4977311;28;20050;-88
2023/02/14 00:46:49;;;;;;;87.65;30.83;;;1.10;99.90;;;;;;4977598;28;20116;-90
2023/02/14 00:49:15;;;;;;;84.40;28.55;;;1.10;99.90;;;;;;4977128;28;20563;-88
2023/02/14 00:51:41;;;;;;;71.60;28.08;;;1.00;99.90;;;;;;4977154;28;20035;-88
2023/02/14 00:54:06;;;;;;;77.30;25.83;;;0.90;99.90;;;;;;4976804;28;20057;-88
2023/02/14 00:56:32;;;;;;;84.28;30.50;;;0.90;99.90;;;;;;4976805;28;20023;-87
2023/02/14 00:58:57;;;;;;;88.50;29.20;;;0.90;99.90;;;;;;4976203;28;20563;-86
2023/02/14 01:01:23;;;;;;;76.85;26.95;;;0.90;99.90;;;;;;4976653;28;20049;-88
2023/02/14 01:03:49;;;;;;;85.90;29.13;;;0.80;99.90;;;;;;4976534;28;20472;-87
2023/02/14 01:06:15;;;;;;;101.43;32.38;;;0.80;99.90;;;;;;4977437;28;20045;-85
2023/02/14 01:08:41;;;;;;;92.50;31.73;;;0.70;99.90;;;;;;4976493;28;20579;-87
2023/02/14 01:11:13;;;;;;;77.45;28.45;;;0.70;99.90;;;;;;4975938;28;20065;-88
2023/02/14 01:13:39;;;;;;;100.28;34.25;;;0.60;99.90;;;;;;4993426;28;20498;-87
2023/02/14 01:16:11;;;;;;;96.45;30.67;;;0.60;99.90;;;;;;4976247;28;20117;-87
2023/02/14 01:18:37;;;;;;;128.15;35.50;;;0.60;99.90;;;;;;4976209;28;20026;-87
2023/02/14 01:21:24;;;;;;;116.95;35.50;;;0.50;99.90;;;;;;4976178;28;20084;-87
2023/02/14 01:23:53;;;;;;;147.80;36.15;;;0.50;99.90;;;;;;4975988;28;20042;-87
2023/02/14 01:26:20;;;;;;;106.28;36.10;;;0.50;99.90;;;;;;4975676;28;20030;-87
2023/02/14 01:28:46;;;;;;;111.38;33.25;;;0.40;99.90;;;;;;4976237;28;20431;-88
2023/02/14 01:31:21;;;;;;;104.43;37.20;;;0.40;99.90;;;;;;4975868;28;20362;-87
2023/02/14 01:33:48;;;;;;;125.82;37.15;;;0.40;99.90;;;;;;4975635;28;20076;-86
2023/02/14 01:36:24;;;;;;;98.70;34.05;;;0.30;99.90;;;;;;4975860;28;20038;-87
2023/02/14 01:38:53;;;;;;;97.10;32.35;;;0.30;99.90;;;;;;4975731;28;20117;-86
2023/02/14 01:41:19;;;;;;;85.68;30.92;;;0.30;99.90;;;;;;4975577;28;20176;-87
2023/02/14 01:44:14;;;;;;;80.00;28.85;;;0.30;99.90;;;;;;4975734;28;20038;-87
2023/02/14 01:46:41;;;;;;;86.38;27.98;;;0.30;99.90;;;;;;4879328;29;20064;-87
2023/02/14 01:49:22;;;;;;;107.70;34.13;;;0.30;99.90;;;;;;4877943;29;20518;-87
2023/02/14 01:52:16;;;;;;;200.55;35.80;;;0.20;99.90;;;;;;4879515;29;20041;-86
2023/02/14 01:54:48;;;;;;;164.85;34.25;;;0.10;99.90;;;;;;4894852;29;20036;-87
2023/02/14 01:57:18;;;;;;;185.70;33.08;;;0.00;99.90;;;;;;4879489;29;20135;-87
2023/02/14 01:59:50;;;;;;;129.40;30.23;;;-0.10;99.90;;;;;;4879338;29;20429;-87
2023/02/14 02:02:22;;;;;;;96.00;29.67;;;-0.10;99.90;;;;;;4879630;29;20025;-87
2023/02/14 02:04:50;;;;;;;115.28;32.95;;;-0.10;99.90;;;;;;4879487;29;20077;-86
2023/02/14 02:07:22;;;;;;;123.00;33.67;;;-0.10;99.90;;;;;;4879681;29;20040;-86
2023/02/14 02:09:55;;;;;;;103.00;31.73;;;-0.10;99.90;;;;;;4880341;29;20040;-86
2023/02/14 02:12:21;;;;;;;111.50;31.05;;;-0.20;99.90;;;;;;4895070;29;20430;-86
2023/02/14 02:14:51;;;;;;;194.90;35.50;;;-0.20;99.90;;;;;;4879298;29;20029;-86
2023/02/14 02:17:32;;;;;;;135.32;31.25;;;-0.20;99.90;;;;;;4879228;29;20405;-87
2023/02/14 02:20:09;;;;;;;114.53;34.63;;;-0.30;99.90;;;;;;4895188;29;20033;-87
2023/02/14 02:23:09;;;;;;;101.05;30.88;;;-0.30;99.90;;;;;;4904238;28;20055;-86
2023/02/14 02:25:53;;;;;;;94.18;30.98;;;-0.40;99.90;;;;;;4973318;28;20045;-86
2023/02/14 02:29:07;;;;;;;102.90;33.85;;;-0.40;99.90;;;;;;4979908;28;20034;-86
2023/02/14 02:31:57;;;;;;;84.82;28.30;;;-0.40;99.90;;;;;;4989061;28;20460;-86
2023/02/14 02:35:04;;;;;;;88.93;30.38;;;-0.40;99.90;;;;;;4979554;28;20140;-86
2023/02/14 02:37:48;;;;;;;92.13;29.20;;;-0.40;99.90;;;;;;4979610;28;20591;-86
2023/02/14 02:40:35;;;;;;;82.90;28.85;;;-0.40;99.90;;;;;;4979993;28;20170;-85
2023/02/14 02:43:07;;;;;;;80.72;30.08;;;-0.40;99.90;;;;;;4979237;28;20049;-85
2023/02/14 02:45:35;;;;;;;83.88;28.20;;;-0.40;99.90;;;;;;4978747;28;20081;-85
2023/02/14 02:48:18;;;;;;;99.10;31.63;;;-0.40;99.90;;;;;;4978740;28;20057;-88
2023/02/14 02:54:02;;;;;;;109.43;33.42;;;-0.10;99.90;;;;;;4996893;28;20554;-88
2023/02/14 02:56:48;;;;;;;91.28;30.08;;;0.20;99.90;;;;;;4978950;28;20494;-87
2023/02/14 02:59:31;;;;;;;88.78;30.40;;;0.40;99.90;;;;;;4978581;28;20046;-84
2023/02/14 03:02:14;;;;;;;105.28;35.78;;;0.60;99.90;;;;;;4974430;28;20026;-87
2023/02/14 03:04:53;;;;;;;86.47;30.98;;;0.70;99.90;;;;;;4964269;28;20035;-87
2023/02/14 03:07:35;;;;;;;77.47;29.27;;;0.80;99.90;;;;;;4959494;28;20038;-88
2023/02/14 03:10:03;;;;;;;76.97;27.88;;;0.80;99.90;;;;;;4959184;28;20038;-88
2023/02/14 03:12:32;;;;;;;82.20;28.98;;;0.80;99.90;;;;;;4959213;28;20034;-87
2023/02/14 03:15:31;;;;;;;79.93;27.27;;;0.80;99.90;;;;;;4959243;28;20035;-87
2023/02/14 03:18:12;;;;;;;79.45;30.05;;;0.70;99.90;;;;;;4958524;28;20388;-87
2023/02/14 03:20:57;;;;;;;79.40;28.88;;;0.70;99.90;;;;;;4959000;28;20425;-88
2023/02/14 03:23:32;;;;;;;83.82;28.70;;;0.70;99.90;;;;;;4959073;28;20041;-87
2023/02/14 03:26:10;;;;;;;77.00;28.52;;;0.70;99.90;;;;;;4958674;28;20043;-87
2023/02/14 03:28:56;;;;;;;76.05;28.08;;;0.70;99.90;;;;;;4962936;28;20051;-87
2023/02/14 03:31:34;;;;;;;86.47;29.55;;;0.70;99.90;;;;;;4958802;28;20389;-87
2023/02/14 03:34:08;;;;;;;84.22;28.80;;;0.80;99.90;;;;;;4959064;28;20034;-88
2023/02/14 03:36:42;;;;;;;89.05;31.02;;;1.00;99.90;;;;;;4958583;28;20023;-88
2023/02/14 03:39:37;;;;;;;79.57;30.23;;;1.10;99.90;;;;;;4960246;28;20027;-88
2023/02/14 03:42:09;;;;;;;84.00;31.35;;;1.20;99.90;;;;;;4960537;28;20105;-87
2023/02/14 03:44:36;;;;;;;85.07;28.20;;;1.40;99.90;;;;;;4959203;28;20132;-88
2023/02/14 03:47:13;;;;;;;84.45;31.42;;;1.50;99.90;;;;;;4958891;28;20023;-89
2023/02/14 03:49:54;;;;;;;73.60;28.20;;;1.60;99.90;;;;;;4958835;28;20038;-89
2023/02/14 03:52:23;;;;;;;94.63;33.83;;;1.70;99.90;;;;;;4964773;28;20039;-88
2023/02/14 03:54:52;;;;;;;87.90;33.08;;;1.80;99.90;;;;;;4959621;28;20019;-89
2023/02/14 03:57:31;;;;;;;89.47;34.03;;;1.80;99.90;;;;;;4960003;28;20027;-89
2023/02/14 03:59:57;;;;;;;96.82;33.53;;;1.90;99.90;;;;;;4959942;28;20046;-89
2023/02/14 04:02:37;;;;;;;94.45;34.13;;;1.90;99.90;;;;;;4959997;28;20038;-88
2023/02/14 04:05:11;;;;;;;96.85;35.42;;;2.00;99.90;;;;;;4958474;28;20473;-88
2023/02/14 04:07:48;;;;;;;82.05;32.70;;;2.10;99.90;;;;;;4958473;28;20093;-88
2023/02/14 04:10:15;;;;;;;87.63;32.55;;;2.10;99.90;;;;;;4958277;28;20198;-88
2023/02/14 04:12:41;;;;;;;86.82;33.03;;;2.10;99.90;;;;;;4975634;28;20039;-89
2023/02/14 04:15:07;;;;;;;70.90;28.75;;;2.10;99.90;;;;;;4958410;28;20034;-88
2023/02/14 04:20:18;;;;;;;73.68;28.83;;;2.10;99.90;;;;;;4975469;28;20030;-89
2023/02/14 04:22:45;;;;;;;75.38;28.60;;;2.00;99.90;;;;;;4975358;28;20054;-88
2023/02/14 04:25:11;;;;;;;77.22;29.23;;;2.00;99.90;;;;;;4958118;28;20058;-88
2023/02/14 04:27:37;;;;;;;79.85;31.55;;;2.00;99.90;;;;;;4958061;28;20058;-89
2023/02/14 04:30:03;;;;;;;76.35;27.90;;;2.00;99.90;;;;;;4958197;28;20476;-89
2023/02/14 04:32:29;;;;;;;86.22;31.27;;;1.90;99.90;;;;;;4957691;28;20054;-88
2023/02/14 04:34:54;;;;;;;83.97;32.47;;;2.00;99.90;;;;;;4957842;28;20042;-89
2023/02/14 04:37:20;;;;;;;90.95;34.10;;;2.10;99.90;;;;;;4957944;28;20062;-89
2023/02/14 04:39:46;;;;;;;97.80;36.67;;;2.10;99.90;;;;;;4958021;28;20132;-89
2023/02/14 04:42:12;;;;;;;85.28;31.17;;;2.20;99.90;;;;;;4958030;28;20117;-88
2023/02/14 04:44:38;;;;;;;81.70;31.40;;;2.20;99.90;;;;;;4974962;28;20023;-89
2023/02/14 04:47:04;;;;;;;82.43;30.40;;;2.10;99.90;;;;;;4957021;28;20023;-88
2023/02/14 04:49:30;;;;;;;81.53;30.92;;;2.10;99.90;;;;;;4957712;28;20027;-90
2023/02/14 04:51:56;;;;;;;81.18;30.23;;;2.00;99.90;;;;;;4957795;28;20042;-89
2023/02/14 04:54:22;;;;;;;84.70;32.15;;;2.00;99.90;;;;;;4957804;28;20023;-89
2023/02/14 04:56:48;;;;;;;88.55;33.05;;;1.90;99.90;;;;;;4957474;28;20129;-89
2023/02/14 04:59:14;;;;;;;96.85;33.28;;;1.90;99.90;;;;;;4960851;28;20077;-89
2023/02/14 05:01:40;;;;;;;89.32;33.22;;;1.90;99.90;;;;;;4973791;28;20037;-88
2023/02/14 05:04:06;;;;;;;79.57;29.88;;;1.90;99.90;;;;;;4974268;28;20046;-88
2023/02/14 05:06:32;;;;;;;88.57;32.95;;;1.90;99.90;;;;;;4979536;28;20049;-89
2023/02/14 05:08:59;;;;;;;93.80;35.25;;;1.90;99.90;;;;;;4965813;28;20030;-89
2023/02/14 05:11:26;;;;;;;93.85;33.17;;;1.90;99.90;;;;;;4972482;28;20026;-89
2023/02/14 05:13:52;;;;;;;87.45;32.55;;;1.90;99.90;;;;;;4977929;28;20027;-88
2023/02/14 05:16:17;;;;;;;88.72;33.17;;;2.00;99.90;;;;;;4970895;28;20090;-89
2023/02/14 05:18:43;;;;;;;90.43;34.33;;;2.00;99.90;;;;;;4969266;28;20062;-88
2023/02/14 05:21:09;;;;;;;75.45;29.17;;;2.00;99.90;;;;;;4968702;28;20037;-89
2023/02/14 05:23:35;;;;;;;79.88;30.45;;;2.10;99.90;;;;;;4969110;28;20026;-88
2023/02/14 05:26:01;;;;;;;92.28;33.72;;;2.10;99.90;;;;;;4968838;28;20034;-89
2023/02/14 05:28:26;;;;;;;88.97;33.15;;;2.20;99.90;;;;;;4969980;28;20079;-90
2023/02/14 05:30:52;;;;;;;88.50;32.17;;;2.20;99.90;;;;;;4970105;28;20019;-90
2023/02/14 05:33:18;;;;;;;86.63;31.35;;;2.20;99.90;;;;;;4969673;28;20035;-89
2023/02/14 05:35:44;;;;;;;82.10;33.25;;;2.20;99.90;;;;;;4969993;28;20018;-89
2023/02/14 05:38:11;;;;;;;90.20;33.15;;;2.20;99.90;;;;;;4969613;28;20019;-90
2023/02/14 05:40:37;;;;;;;88.95;33.08;;;2.20;99.90;;;;;;4968763;28;20042;-89
2023/02/14 05:43:03;;;;;;;97.35;34.88;;;2.20;99.90;;;;;;4968657;28;20031;-88
2023/02/14 05:45:28;;;;;;;76.07;29.70;;;2.20;99.90;;;;;;4985701;28;20137;-89
2023/02/14 05:47:54;;;;;;;96.68;31.63;;;2.20;99.90;;;;;;4969613;28;20043;-90
2023/02/14 05:50:20;;;;;;;84.78;33.28;;;2.20;99.90;;;;;;4969188;28;20063;-89
2023/02/14 05:52:46;;;;;;;85.05;31.98;;;2.20;99.90;;;;;;4972312;28;20046;-89
2023/02/14 05:55:12;;;;;;;86.05;31.23;;;2.10;99.90;;;;;;4973196;28;20027;-88
2023/02/14 05:57:37;;;;;;;90.97;32.70;;;2.10;99.90;;;;;;4984779;28;20034;-89
2023/02/14 06:00:05;;;;;;;71.85;29.30;;;2.10;99.90;;;;;;4990641;28;20074;-89
2023/02/14 06:02:31;;;;;;;91.22;33.33;;;2.10;99.90;;;;;;4975833;28;20372;-89
2023/02/14 06:04:57;;;;;;;97.35;35.53;;;2.10;99.90;;;;;;4974375;28;20027;-89
2023/02/14 06:07:23;;;;;;;91.40;33.85;;;2.10;99.90;;;;;;4991811;28;20030;-89
2023/02/14 06:09:48;;;;;;;108.35;37.65;;;2.10;99.90;;;;;;4974248;28;20500;-89
2023/02/14 06:12:14;;;;;;;102.25;37.35;;;2.20;99.90;;;;;;4974366;28;20046;-89
2023/02/14 06:14:41;;;;;;;98.20;36.20;;;2.20;99.90;;;;;;4975029;28;20034;-88
2023/02/14 06:17:08;;;;;;;99.70;36.47;;;2.20;99.90;;;;;;4975697;28;20030;-89
2023/02/14 06:19:34;;;;;;;104.32;34.40;;;2.20;99.90;;;;;;4974679;28;20038;-88
2023/02/14 06:22:00;;;;;;;93.72;32.08;;;2.10;99.90;;;;;;4974639;28;20027;-88
2023/02/14 06:24:26;;;;;;;92.72;33.10;;;2.10;99.90;;;;;;4973802;28;20472;-89
2023/02/14 06:26:51;;;;;;;94.97;33.75;;;2.10;99.90;;;;;;4974031;28;20031;-89
2023/02/14 06:29:17;;;;;;;100.80;34.95;;;2.10;99.90;;;;;;4972922;28;20031;-90
2023/02/14 06:31:43;;;;;;;104.20;37.63;;;2.00;99.90;;;;;;4973388;28;20429;-89
2023/02/14 06:34:08;;;;;;;110.80;36.38;;;2.10;99.90;;;;;;4971540;28;20070;-89
2023/02/14 06:36:34;;;;;;;103.93;34.47;;;2.10;99.90;;;;;;4964044;28;20027;-89
2023/02/14 06:38:59;;;;;;;106.22;36.40;;;2.10;99.90;;;;;;4973984;28;20118;-90
2023/02/14 06:41:25;;;;;;;104.50;35.85;;;2.10;99.90;;;;;;4987703;28;20455;-90
2023/02/14 06:43:51;;;;;;;108.95;37.08;;;2.00;99.90;;;;;;4984929;28;20018;-89
2023/02/14 06:46:17;;;;;;;110.47;36.55;;;1.90;99.90;;;;;;4985366;28;20027;-89
2023/02/14 06:48:43;;;;;;;111.30;36.55;;;1.90;99.90;;;;;;5001042;28;20047;-89
2023/02/14 06:51:09;;;;;;;113.80;34.88;;;1.90;99.90;;;;;;4984731;28;20086;-90
2023/02/14 06:53:35;;;;;;;110.38;36.83;;;1.90;99.90;;;;;;4986020;28;20061;-88
2023/02/14 06:56:01;;;;;;;122.97;37.97;;;1.90;99.90;;;;;;5003752;28;20030;-89
2023/02/14 06:58:27;;;;;;;111.25;38.60;;;1.80;99.90;;;;;;5008657;28;20053;-91
2023/02/14 07:00:57;;;;;;;118.60;37.05;;;1.90;99.90;;;;;;4985458;28;20027;-88
2023/02/14 07:03:24;;;;;;;132.68;40.05;;;1.80;99.90;;;;;;4986355;28;20027;-91
2023/02/14 07:05:51;;;;;;;122.10;37.92;;;1.80;99.90;;;;;;5003635;28;20033;-90
2023/02/14 07:08:16;;;;;;;118.88;40.70;;;1.80;99.90;;;;;;4974290;28;20481;-90
2023/02/14 07:10:42;;;;;;;115.38;36.05;;;1.80;99.90;;;;;;4988620;28;20006;-90
2023/02/14 07:13:08;;;;;;;114.28;38.47;;;1.80;99.90;;;;;;4995874;28;20047;-92
2023/02/14 07:15:33;;;;;;;114.25;35.30;;;1.80;99.90;;;;;;4975891;28;20037;-90
2023/02/14 07:17:59;;;;;;;138.27;40.00;;;1.80;99.90;;;;;;5000734;28;20030;-90
2023/02/14 07:20:25;;;;;;;114.15;37.20;;;1.80;99.90;;;;;;4975305;28;20026;-90
2023/02/14 07:22:50;;;;;;;125.28;38.97;;;1.80;99.90;;;;;;4973281;28;20046;-90
2023/02/14 07:25:16;;;;;;;124.45;39.17;;;1.80;99.90;;;;;;4977256;28;20027;-90
2023/02/14 07:27:43;;;;;;;145.15;39.08;;;1.80;99.90;;;;;;4989947;28;20265;-91
2023/02/14 07:30:10;;;;;;;149.38;41.45;;;1.80;99.90;;;;;;4990066;28;20034;-88
2023/02/14 07:32:39;;;;;;;229.75;41.35;;;1.80;99.90;;;;;;5012726;28;20053;-90
2023/02/14 07:35:06;;;;;;;203.88;40.58;;;1.80;99.90;;;;;;4987153;28;20015;-90
2023/02/14 07:37:33;;;;;;;114.85;34.42;;;1.80;99.90;;;;;;4988301;28;20090;-92
2023/02/14 07:39:58;;;;;;;161.88;43.10;;;1.80;99.90;;;;;;4986979;28;20053;-89
2023/02/14 07:42:24;;;;;;;155.73;40.05;;;1.80;99.90;;;;;;4988294;28;20496;-90
2023/02/14 07:44:50;;;;;;;267.13;43.30;;;1.80;99.90;;;;;;4988871;28;20019;-88
2023/02/14 07:47:15;;;;;;;204.32;39.42;;;1.70;99.90;;;;;;5009512;28;20035;-89
2023/02/14 07:49:41;;;;;;;147.27;38.28;;;1.80;99.90;;;;;;4978091;28;20027;-89
2023/02/14 07:52:06;;;;;;;147.38;38.35;;;1.80;99.90;;;;;;4980767;28;20035;-88
2023/02/14 07:54:32;;;;;;;192.05;40.25;;;1.80;99.90;;;;;;4977669;28;20050;-91
2023/02/14 07:56:58;;;;;;;295.33;41.17;;;1.80;99.90;;;;;;4991762;28;20030;-88
2023/02/14 07:59:23;;;;;;;214.07;34.85;;;1.80;99.90;;;;;;4995662;28;20054;-88
2023/02/14 08:01:50;;;;;;;166.63;35.08;;;1.80;99.90;;;;;;4984113;28;20602;-91
2023/02/14 08:04:15;;;;;;;206.80;36.25;;;1.70;99.90;;;;;;4986431;28;20055;-90
2023/02/14 08:06:42;;;;;;;341.20;39.17;;;1.70;99.90;;;;;;4988339;28;20042;-89
2023/02/14 08:09:23;;;;;;;203.15;38.13;;;1.70;99.90;;;;;;4986728;28;20021;-89
2023/02/14 08:14:37;;;;;;;217.07;34.05;;;1.70;99.90;;;;;;5001531;28;20025;-90
2023/02/14 08:17:06;;;;;;;253.75;36.53;;;1.70;99.90;;;;;;4989586;28;20019;-91
2023/02/14 08:19:32;;;;;;;158.75;39.78;;;1.70;99.90;;;;;;4981627;28;20078;-90
2023/02/14 08:21:57;;;;;;;428.10;47.03;;;1.70;99.90;;;;;;4982661;28;20026;-91
2023/02/14 08:24:23;;;;;;;105.40;32.60;;;1.80;99.90;;;;;;4997720;28;20030;-90
2023/02/14 08:26:49;;;;;;;209.02;35.42;;;1.80;99.90;;;;;;4986043;28;20038;-92
2023/02/14 08:29:15;;;;;;;370.33;38.33;;;1.90;99.90;;;;;;4979969;28;20040;-90
2023/02/14 08:31:41;;;;;;;149.63;34.30;;;1.80;99.90;;;;;;5012304;28;20023;-89
2023/02/14 08:34:06;;;;;;;296.60;34.88;;;1.80;99.90;;;;;;4981097;28;20037;-90
2023/02/14 08:36:33;;;;;;;202.90;35.42;;;1.80;99.90;;;;;;4993904;28;20031;-89
2023/02/14 08:39:00;;;;;;;130.88;32.97;;;1.80;99.90;;;;;;4993457;28;20034;-89
2023/02/14 08:41:25;;;;;;;88.57;28.50;;;1.80;99.90;;;;;;4984319;28;20030;-90
2023/02/14 08:43:51;;;;;;;83.07;31.38;;;1.80;99.90;;;;;;4979172;28;20030;-89
2023/02/14 08:46:17;;;;;;;94.38;33.20;;;1.80;99.90;;;;;;4979181;28;20033;-90
2023/02/14 08:48:43;;;;;;;100.43;31.85;;;1.80;99.90;;;;;;4974060;28;20037;-89
2023/02/14 08:51:11;;;;;;;93.95;29.73;;;1.80;99.90;;;;;;4967857;28;20019;-88
2023/02/14 08:53:38;;;;;;;93.00;31.58;;;1.80;99.90;;;;;;4984919;28;20031;-87
2023/02/14 08:56:09;;;;;;;89.82;29.25;;;1.80;99.90;;;;;;4973231;28;20050;-95
2023/02/14 08:58:35;;;;;;;90.70;29.33;;;1.80;99.90;;;;;;4975709;28;20070;-93
2023/02/14 09:01:06;;;;;;;91.90;31.02;;;1.80;99.90;;;;;;4977406;28;20038;-95
2023/02/14 09:03:32;;;;;;;121.47;33.78;;;1.90;99.90;;;;;;4970332;28;20088;-94
2023/02/14 09:06:06;;;;;;;83.88;30.48;;;1.90;99.90;;;;;;4977916;28;20031;-94
2023/02/14 09:08:33;;;;;;;107.45;29.38;;;2.00;99.90;;;;;;4976727;28;20015;-94
2023/02/14 09:11:06;;;;;;;170.10;32.08;;;2.00;99.90;;;;;;4976807;28;20035;-94
2023/02/14 09:13:32;;;;;;;287.95;34.55;;;2.00;99.90;;;;;;4978243;28;20042;-93
2023/02/14 09:16:01;;;;;;;106.30;29.42;;;2.00;99.90;;;;;;4975141;28;20034;-93
2023/02/14 09:18:27;;;;;;;89.93;29.48;;;2.00;99.90;;;;;;4974211;28;20027;-93
2023/02/14 09:20:53;;;;;;;95.32;30.63;;;2.00;99.90;;;;;;4977491;28;20015;-94
2023/02/14 09:23:19;;;;;;;85.35;30.55;;;2.10;99.90;;;;;;4978291;28;20018;-94
2023/02/14 09:25:44;;;;;;;108.40;28.83;;;2.10;99.90;;;;;;4978334;28;20027;-92
2023/02/14 09:28:10;;;;;;;102.25;29.48;;;2.20;99.90;;;;;;4979450;28;20019;-92
2023/02/14 09:30:36;;;;;;;116.10;30.15;;;2.20;99.90;;;;;;4977995;28;20034;-92
2023/02/14 09:33:04;;;;;;;87.38;27.67;;;2.20;99.90;;;;;;4979633;28;20500;-92
2023/02/14 09:35:30;;;;;;;126.72;30.50;;;2.20;99.90;;;;;;4980252;28;20027;-92
2023/02/14 09:37:56;;;;;;;124.18;31.67;;;2.20;99.90;;;;;;4979680;28;20027;-92
2023/02/14 09:40:22;;;;;;;140.27;32.78;;;2.30;99.90;;;;;;4980076;28;20026;-94
2023/02/14 09:43:04;;;;;;;112.72;31.63;;;2.30;99.90;;;;;;4980189;28;20007;-93
2023/02/14 09:45:31;;;;;;;273.73;40.08;;;2.30;99.90;;;;;;4980119;28;20027;-93
2023/02/14 09:48:26;;;;;;;126.82;33.38;;;2.40;99.90;;;;;;4979538;28;20019;-93
2023/02/14 09:50:55;;;;;;;153.23;31.85;;;2.40;99.90;;;;;;4971242;28;20031;-94
2023/02/14 09:53:28;;;;;;;161.75;33.90;;;2.40;99.90;;;;;;4979527;28;20031;-95
2023/02/14 09:56:16;;;;;;;112.60;30.42;;;2.50;99.90;;;;;;4980109;28;20014;-94
2023/02/14 09:59:14;;;;;;;180.25;34.13;;;2.50;99.90;;;;;;4979784;28;20050;-93
2023/02/14 10:01:56;;;;;;;206.02;32.67;;;2.50;99.90;;;;;;4977772;28;20022;-95
2023/02/14 10:04:39;;;;;;;107.53;31.38;;;2.50;99.90;;;;;;4979425;28;20126;-94
2023/02/14 10:07:15;;;;;;;114.07;30.58;;;2.50;99.90;;;;;;4979058;28;20116;-94
2023/02/14 10:10:03;;;;;;;114.45;29.88;;;2.60;99.90;;;;;;4978376;28;20046;-93
2023/02/14 10:12:51;;;;;;;128.38;30.85;;;2.60;99.90;;;;;;4979571;28;20107;-94
2023/02/14 10:15:37;;;;;;;118.45;31.33;;;2.70;99.90;;;;;;4980784;28;20021;-93
2023/02/14 10:18:19;;;;;;;126.53;31.40;;;2.70;99.90;;;;;;4972899;28;20026;-93
2023/02/14 10:20:56;;;;;;;126.57;34.75;;;2.70;99.90;;;;;;4975997;28;20160;-94
2023/02/14 10:23:41;;;;;;;111.10;31.90;;;2.80;99.90;;;;;;4979330;28;20030;-94
2023/02/14 10:26:25;;;;;;;121.88;31.17;;;2.80;99.90;;;;;;4976503;28;20023;-93
2023/02/14 10:28:53;;;;;;;119.70;32.38;;;2.90;99.90;;;;;;4970200;28;20026;-93
2023/02/14 10:31:30;;;;;;;90.20;32.13;;;2.90;99.90;;;;;;4981127;28;20029;-94
2023/02/14 10:34:02;;;;;;;128.70;32.08;;;3.00;99.90;;;;;;4980208;28;20042;-94
2023/02/14 10:36:54;;;;;;;124.25;34.42;;;3.00;99.90;;;;;;4980394;28;20035;-94
2023/02/14 10:39:44;;;;;;;95.43;32.97;;;3.10;99.90;;;;;;4975032;28;20030;-93
2023/02/14 10:42:49;;;;;;;101.30;33.23;;;3.10;99.90;;;;;;4962197;28;20058;-95
2023/02/14 10:45:43;;;;;;;82.65;31.92;;;3.20;99.90;;;;;;4969531;28;20031;-93
2023/02/14 10:48:42;;;;;;;82.68;30.88;;;3.20;99.90;;;;;;4964649;28;20038;-92
2023/02/14 10:51:29;;;;;;;78.50;31.67;;;3.40;99.90;;;;;;4982562;28;20030;-94
2023/02/14 10:54:19;;;;;;;79.85;32.55;;;3.60;99.90;;;;;;4974778;28;20057;-93
2023/02/14 10:56:48;;;;;;;82.88;31.40;;;3.80;99.90;;;;;;4976220;28;20042;-95
2023/02/14 10:59:41;;;;;;;79.20;32.28;;;3.90;99.90;;;;;;4982975;28;20055;-93
2023/02/14 11:02:13;;;;;;;75.93;31.67;;;4.10;99.90;;;;;;4981749;28;20074;-93
2023/02/14 11:04:40;;;;;;;87.40;31.48;;;4.10;99.90;;;;;;4981501;28;20015;-95
2023/02/14 11:07:20;;;;;;;76.40;30.80;;;4.20;99.90;;;;;;4981946;28;20029;-94
2023/02/14 11:09:47;;;;;;;78.28;30.60;;;4.40;99.90;;;;;;4980480;28;20050;-94
2023/02/14 11:12:33;;;;;;;78.20;29.45;;;4.50;99.90;;;;;;4956005;28;20093;-93
2023/02/14 11:15:20;;;;;;;69.82;31.50;;;4.70;99.90;;;;;;4981852;28;20044;-95
2023/02/14 11:17:46;;;;;;;67.30;29.10;;;4.80;99.90;;;;;;4981245;28;20035;-95
2023/02/14 11:20:21;;;;;;;69.25;30.45;;;5.00;99.90;;;;;;4980555;28;20018;-94
2023/02/14 11:22:48;;;;;;;71.05;30.02;;;5.10;99.90;;;;;;4980609;28;20029;-93
2023/02/14 11:25:18;;;;;;;73.85;30.85;;;5.20;99.90;;;;;;4980858;28;20031;-93
2023/02/14 11:27:48;;;;;;;65.28;28.55;;;5.30;99.90;;;;;;4981098;28;20019;-94
2023/02/14 11:30:34;;;;;;;71.05;30.92;;;5.40;99.90;;;;;;4973365;28;20027;-92
2023/02/14 11:33:00;;;;;;;66.95;30.38;;;5.60;99.90;;;;;;4963561;28;20038;-94
2023/02/14 11:35:33;;;;;;;77.70;32.40;;;5.70;99.90;;;;;;4962152;28;20026;-95
2023/02/14 11:38:01;;;;;;;81.32;32.15;;;5.70;99.90;;;;;;4961598;28;20229;-93
2023/02/14 11:40:29;;;;;;;81.75;32.65;;;5.80;99.90;;;;;;4961978;28;20035;-95
2023/02/14 11:42:58;;;;;;;76.97;31.80;;;5.70;99.90;;;;;;4961946;28;20134;-93
2023/02/14 11:45:34;;;;;;;71.95;32.42;;;5.70;99.90;;;;;;4962111;28;20019;-93
2023/02/14 11:48:18;;;;;;;83.90;34.70;;;5.60;99.90;;;;;;4962717;28;20023;-94
2023/02/14 11:50:52;;;;;;;73.35;32.08;;;5.60;99.90;;;;;;4961271;28;20051;-94
2023/02/14 11:53:23;;;;;;;77.93;33.58;;;5.60;99.90;;;;;;4961566;28;20089;-94
2023/02/14 11:55:55;;;;;;;88.35;34.78;;;5.60;99.90;;;;;;4974466;28;20507;-93
2023/02/14 11:58:35;;;;;;;71.40;31.20;;;5.70;99.90;;;;;;4978804;28;20043;-94
2023/02/14 12:01:02;;;;;;;74.47;31.73;;;5.70;99.90;;;;;;4981856;28;20042;-93
2023/02/14 12:03:52;;;;;;;85.90;33.75;;;5.70;99.90;;;;;;4979763;28;20042;-94
2023/02/14 12:06:30;;;;;;;77.25;32.38;;;5.70;99.90;;;;;;4979628;28;20027;-94
2023/02/14 12:09:20;;;;;;;80.30;33.55;;;5.70;99.90;;;;;;4966543;28;20023;-95
2023/02/14 12:12:00;;;;;;;;;;;5.80;99.90;;;;;;4976053;28;20389;-93
2023/02/14 12:14:29;;;;;;;76.00;31.35;;;5.80;99.90;;;;;;4965673;28;19906;-93
2023/02/14 12:17:01;;;;;;;74.47;31.92;;;5.80;99.90;;;;;;4965081;28;20030;-94
2023/02/14 12:19:35;;;;;;;78.43;32.13;;;5.90;99.90;;;;;;4962634;28;20392;-95
2023/02/14 12:22:05;;;;;;;78.57;33.28;;;5.90;99.90;;;;;;4962438;28;20432;-93
2023/02/14 12:24:35;;;;;;;80.70;32.30;;;6.00;99.90;;;;;;4961963;28;20121;-94
2023/02/14 12:27:19;;;;;;;69.43;31.05;;;6.00;99.90;;;;;;4961949;28;20062;-94
2023/02/14 12:29:59;;;;;;;76.90;31.38;;;6.00;99.90;;;;;;4964060;28;20023;-95
2023/02/14 12:32:27;;;;;;;71.20;30.67;;;6.10;99.90;;;;;;4962284;28;20074;-94
2023/02/14 12:35:14;;;;;;;70.95;30.73;;;6.10;99.90;;;;;;4961539;28;20038;-93
2023/02/14 12:37:51;;;;;;;68.18;30.50;;;6.20;99.90;;;;;;4961514;28;20023;-95
2023/02/14 12:40:46;;;;;;;67.40;30.50;;;6.30;99.90;;;;;;4961163;28;20053;-95
2023/02/14 12:43:31;;;;;;;66.65;30.13;;;6.40;99.90;;;;;;4960925;28;20480;-94
2023/02/14 12:46:07;;;;;;;68.28;30.25;;;6.50;99.90;;;;;;4960481;28;20405;-94
2023/02/14 12:49:00;;;;;;;62.10;29.92;;;6.60;99.90;;;;;;4960140;28;20034;-94
2023/02/14 12:51:34;;;;;;;68.45;33.33;;;6.80;99.90;;;;;;4960546;28;20046;-94
2023/02/14 12:54:15;;;;;;;79.68;33.40;;;6.90;99.90;;;;;;4959881;28;20034;-94
2023/02/14 12:56:57;;;;;;;66.88;30.63;;;7.10;99.90;;;;;;4960743;28;20050;-94
2023/02/14 12:59:46;;;;;;;62.95;29.95;;;7.50;99.90;;;;;;4959947;28;20113;-94
2023/02/14 13:02:51;;;;;;;61.53;29.92;;;7.90;99.90;;;;;;4962760;28;20035;-94
2023/02/14 13:05:49;;;;;;;61.63;28.42;;;8.50;99.90;;;;;;4964866;28;20030;-95
2023/02/14 13:08:33;;;;;;;57.25;27.70;;;9.10;99.90;;;;;;4967361;28;20031;-95